sensor_id;sensor_type;location;lat;lon;timestamp;pressure;altitude;pressure_sealevel;temperature;humidity
44934;BME280;30667;43.614;1.442;2023-02-01T00:00:11;101451.16;;;7.55;100.00
44934;BME280;30667;43.614;1.442;2023-02-01T00:02:37;101446.38;;;7.57;100.00
44934;BME280;30667;43.614;1.442;2023-02-01T00:05:09;101452.81;;;7.56;100.00
44934;BME280;30667;43.614;1.442;2023-02-01T00:07:36;101449.28;;;7.56;100.00
44934;BME280;30667;43.614;1.442;2023-02-01T00:10:03;101450.72;;;7.58;100.00
44934;BME280;30667;43.614;1.442;2023-02-01T00:12:29;101451.53;;;7.59;100.00
44934;BME280;30667;43.614;1.442;2023-02-01T00:14:55;101451.16;;;7.55;100.00
44934;BME280;30667;43.614;1.442;2023-02-01T00:17:20;101449.66;;;7.59;100.00
44934;BME280;30667;43.614;1.442;2023-02-01T00:19:45;101445.78;;;7.55;100.00
44934;BME280;30667;43.614;1.442;2023-02-01T00:22:11;101436.66;;;7.56;100.00
44934;BME280;30667;43.614;1.442;2023-02-01T00:24:36;101438.50;;;7.56;100.00
44934;BME280;30667;43.614;1.442;2023-02-01T00:27:01;101441.84;;;7.58;100.00
44934;BME280;30667;43.614;1.442;2023-02-01T00:29:27;101436.19;;;7.59;100.00
44934;BME280;30667;43.614;1.442;2023-02-01T00:31:52;101438.66;;;7.61;100.00
44934;BME280;30667;43.614;1.442;2023-02-01T00:34:18;101442.19;;;7.61;100.00
44934;BME280;30667;43.614;1.442;2023-02-01T00:36:44;101434.13;;;7.61;100.00
44934;BME280;30667;43.614;1.442;2023-02-01T00:39:11;101431.66;;;7.60;100.00
44934;BME280;30667;43.614;1.442;2023-02-01T00:41:37;101433.91;;;7.63;100.00
44934;BME280;30667;43.614;1.442;2023-02-01T00:44:03;101433.50;;;7.59;100.00
44934;BME280;30667;43.614;1.442;2023-02-01T00:46:29;101436.19;;;7.59;100.00
44934;BME280;30667;43.614;1.442;2023-02-01T00:48:54;101431.88;;;7.58;100.00
44934;BME280;30667;43.614;1.442;2023-02-01T00:51:22;101427.06;;;7.60;100.00
44934;BME280;30667;43.614;1.442;2023-02-01T00:53:48;101433.75;;;7.58;100.00
44934;BME280;30667;43.614;1.442;2023-02-01T00:56:14;101431.66;;;7.60;100.00
44934;BME280;30667;43.614;1.442;2023-02-01T00:58:40;101420.03;;;7.59;100.00
44934;BME280;30667;43.614;1.442;2023-02-01T01:03:40;101421.91;;;7.59;100.00
44934;BME280;30667;43.614;1.442;2023-02-01T01:06:09;101430.00;;;7.59;100.00
44934;BME280;30667;43.614;1.442;2023-02-01T01:08:35;101427.53;;;7.57;100.00
44934;BME280;30667;43.614;1.442;2023-02-01T01:11:17;101430.22;;;7.57;100.00
44934;BME280;30667;43.614;1.442;2023-02-01T01:13:43;101432.31;;;7.55;100.00
44934;BME280;30667;43.614;1.442;2023-02-01T01:16:10;101430.88;;;7.53;100.00
44934;BME280;30667;43.614;1.442;2023-02-01T01:18:36;101434.41;;;7.53;100.00
44934;BME280;30667;43.614;1.442;2023-02-01T01:21:04;101428.41;;;7.51;100.00
44934;BME280;30667;43.614;1.442;2023-02-01T01:23:30;101432.31;;;7.55;100.00
44934;BME280;30667;43.614;1.442;2023-02-01T01:25:55;101426.94;;;7.55;100.00
44934;BME280;30667;43.614;1.442;2023-02-01T01:28:21;101435.00;;;7.55;100.00
44934;BME280;30667;43.614;1.442;2023-02-01T01:30:46;101433.13;;;7.56;100.00
44934;BME280;30667;43.614;1.442;2023-02-01T01:33:12;101429.63;;;7.55;100.00
44934;BME280;30667;43.614;1.442;2023-02-01T01:35:38;101428.81;;;7.55;100.00
44934;BME280;30667;43.614;1.442;2023-02-01T01:38:03;101431.50;;;7.55;100.00
44934;BME280;30667;43.614;1.442;2023-02-01T01:40:29;101430.66;;;7.54;100.00
44934;BME280;30667;43.614;1.442;2023-02-01T01:42:56;101429.63;;;7.55;100.00
44934;BME280;30667;43.614;1.442;2023-02-01T01:45:29;101430.44;;;7.56;100.00
44934;BME280;30667;43.614;1.442;2023-02-01T01:47:58;101427.97;;;7.54;100.00
44934;BME280;30667;43.614;1.442;2023-02-01T01:50:32;101423.88;;;7.52;100.00
44934;BME280;30667;43.614;1.442;2023-02-01T01:53:01;101434.22;;;7.48;100.00
44934;BME280;30667;43.614;1.442;2023-02-01T01:55:31;101429.06;;;7.46;100.00
44934;BME280;30667;43.614;1.442;2023-02-01T01:58:00;101423.31;;;7.43;100.00
44934;BME280;30667;43.614;1.442;2023-02-01T02:00:27;101424.38;;;7.42;100.00
44934;BME280;30667;43.614;1.442;2023-02-01T02:02:58;101422.13;;;7.39;100.00
44934;BME280;30667;43.614;1.442;2023-02-01T02:05:25;101418.38;;;7.40;100.00
44934;BME280;30667;43.614;1.442;2023-02-01T02:07:53;101425.63;;;7.39;100.00
44934;BME280;30667;43.614;1.442;2023-02-01T02:10:22;101423.44;;;7.30;100.00
44934;BME280;30667;43.614;1.442;2023-02-01T02:13:07;101422.88;;;7.21;100.00
44934;BME280;30667;43.614;1.442;2023-02-01T02:15:35;101417.94;;;7.18;100.00
44934;BME280;30667;43.614;1.442;2023-02-01T02:18:15;101420.47;;;7.13;100.00
44934;BME280;30667;43.614;1.442;2023-02-01T02:34:24;101408.09;;;7.12;100.00
44934;BME280;30667;43.614;1.442;2023-02-01T02:37:19;101409.50;;;7.14;100.00
44934;BME280;30667;43.614;1.442;2023-02-01T02:40:04;101400.81;;;7.12;100.00
44934;BME280;30667;43.614;1.442;2023-02-01T02:42:53;101404.53;;;7.11;100.00
44934;BME280;30667;43.614;1.442;2023-02-01T02:45:53;101404.75;;;7.09;100.00
44934;BME280;30667;43.614;1.442;2023-02-01T02:51:53;101399.00;;;7.06;100.00
44934;BME280;30667;43.614;1.442;2023-02-01T02:54:43;101404.59;;;7.04;100.00
44934;BME280;30667;43.614;1.442;2023-02-01T02:57:28;101402.28;;;7.08;100.00
44934;BME280;30667;43.614;1.442;2023-02-01T03:00:19;101395.06;;;7.08;100.00
44934;BME280;30667;43.614;1.442;2023-02-01T03:03:05;101401.69;;;7.06;100.00
44934;BME280;30667;43.614;1.442;2023-02-01T03:05:50;101399.59;;;7.08;100.00
44934;BME280;30667;43.614;1.442;2023-02-01T03:08:27;101392.38;;;7.08;100.00
44934;BME280;30667;43.614;1.442;2023-02-01T03:11:05;101399.75;;;7.13;100.00
44934;BME280;30667;43.614;1.442;2023-02-01T03:13:53;101403.66;;;7.17;100.00
44934;BME280;30667;43.614;1.442;2023-02-01T03:16:36;101403.44;;;7.19;100.00
44934;BME280;30667;43.614;1.442;2023-02-01T03:19:15;101405.91;;;7.20;100.00
44934;BME280;30667;43.614;1.442;2023-02-01T03:21:43;101410.06;;;7.23;100.00
44934;BME280;30667;43.614;1.442;2023-02-01T03:24:14;101411.75;;;7.17;100.00
44934;BME280;30667;43.614;1.442;2023-02-01T03:26:48;101405.09;;;7.20;100.00
44934;BME280;30667;43.614;1.442;2023-02-01T03:29:19;101409.19;;;7.22;100.00
44934;BME280;30667;43.614;1.442;2023-02-01T03:31:48;101401.34;;;7.21;100.00
44934;BME280;30667;43.614;1.442;2023-02-01T03:34:13;101410.28;;;7.21;100.00
44934;BME280;30667;43.614;1.442;2023-02-01T03:36:50;101419.16;;;7.22;100.00
44934;BME280;30667;43.614;1.442;2023-02-01T03:39:28;101415.44;;;7.23;100.00
44934;BME280;30667;43.614;1.442;2023-02-01T03:41:58;101418.94;;;7.23;100.00
44934;BME280;30667;43.614;1.442;2023-02-01T03:44:35;101415.81;;;7.26;100.00
44934;BME280;30667;43.614;1.442;2023-02-01T03:47:06;101419.31;;;7.27;100.00
44934;BME280;30667;43.614;1.442;2023-02-01T03:49:36;101415.81;;;7.26;100.00
44934;BME280;30667;43.614;1.442;2023-02-01T03:52:05;101412.09;;;7.27;100.00
44934;BME280;30667;43.614;1.442;2023-02-01T03:54:32;101411.25;;;7.27;100.00
44934;BME280;30667;43.614;1.442;2023-02-01T03:57:03;101418.28;;;7.28;100.00
44934;BME280;30667;43.614;1.442;2023-02-01T03:59:30;101421.78;;;7.28;100.00
44934;BME280;30667;43.614;1.442;2023-02-01T04:01:55;101420.97;;;7.28;100.00
44934;BME280;30667;43.614;1.442;2023-02-01T04:04:21;101429.88;;;7.28;100.00
44934;BME280;30667;43.614;1.442;2023-02-01T04:06:47;101427.97;;;7.29;100.00
44934;BME280;30667;43.614;1.442;2023-02-01T04:09:13;101420.97;;;7.28;100.00
44934;BME280;30667;43.614;1.442;2023-02-01T04:11:38;101423.66;;;7.28;100.00
44934;BME280;30667;43.614;1.442;2023-02-01T04:14:04;101424.47;;;7.28;100.00
44934;BME280;30667;43.614;1.442;2023-02-01T04:16:30;101425.06;;;7.31;100.00
44934;BME280;30667;43.614;1.442;2023-02-01T04:18:57;101426.13;;;7.30;100.00
44934;BME280;30667;43.614;1.442;2023-02-01T04:21:26;101429.66;;;7.30;100.00
44934;BME280;30667;43.614;1.442;2023-02-01T04:23:53;101427.31;;;7.34;100.00
44934;BME280;30667;43.614;1.442;2023-02-01T04:26:19;101429.78;;;7.35;100.00
44934;BME280;30667;43.614;1.442;2023-02-01T04:28:45;101436.63;;;7.38;100.00
44934;BME280;30667;43.614;1.442;2023-02-01T04:31:16;101433.34;;;7.36;100.00
44934;BME280;30667;43.614;1.442;2023-02-01T04:33:42;101433.34;;;7.36;100.00
44934;BME280;30667;43.614;1.442;2023-02-01T04:36:07;101442.81;;;7.38;100.00
44934;BME280;30667;43.614;1.442;2023-02-01T04:38:33;101442.00;;;7.38;100.00
44934;BME280;30667;43.614;1.442;2023-02-01T04:40:59;101436.63;;;7.38;100.00
44934;BME280;30667;43.614;1.442;2023-02-01T04:43:24;101436.03;;;7.36;100.00
44934;BME280;30667;43.614;1.442;2023-02-01T04:45:50;101439.75;;;7.35;100.00
44934;BME280;30667;43.614;1.442;2023-02-01T04:48:19;101445.13;;;7.35;100.00
44934;BME280;30667;43.614;1.442;2023-02-01T04:50:46;101448.22;;;7.38;100.00
44934;BME280;30667;43.614;1.442;2023-02-01T04:53:16;101452.19;;;7.36;100.00
44934;BME280;30667;43.614;1.442;2023-02-01T04:55:42;101448.44;;;7.37;100.00
44934;BME280;30667;43.614;1.442;2023-02-01T04:58:08;101443.88;;;7.37;100.00
44934;BME280;30667;43.614;1.442;2023-02-01T05:00:34;101438.94;;;7.34;100.00
44934;BME280;30667;43.614;1.442;2023-02-01T05:02:59;101445.13;;;7.35;100.00
44934;BME280;30667;43.614;1.442;2023-02-01T05:05:25;101437.06;;;7.35;100.00
44934;BME280;30667;43.614;1.442;2023-02-01T05:07:51;101441.63;;;7.34;100.00
44934;BME280;30667;43.614;1.442;2023-02-01T05:10:16;101433.34;;;7.36;100.00
44934;BME280;30667;43.614;1.442;2023-02-01T05:12:43;101433.94;;;7.38;100.00
44934;BME280;30667;43.614;1.442;2023-02-01T05:15:28;101440.34;;;7.37;100.00
44934;BME280;30667;43.614;1.442;2023-02-01T05:17:53;101432.72;;;7.34;100.00
44934;BME280;30667;43.614;1.442;2023-02-01T05:20:18;101444.09;;;7.36;100.00
44934;BME280;30667;43.614;1.442;2023-02-01T05:22:44;101445.72;;;7.37;100.00
44934;BME280;30667;43.614;1.442;2023-02-01T05:25:09;101453.00;;;7.36;100.00
44934;BME280;30667;43.614;1.442;2023-02-01T05:27:35;101451.34;;;7.35;100.00
44934;BME280;30667;43.614;1.442;2023-02-01T05:30:02;101442.22;;;7.36;100.00
44934;BME280;30667;43.614;1.442;2023-02-01T05:32:27;101450.31;;;7.36;100.00
44934;BME280;30667;43.614;1.442;2023-02-01T05:34:53;101446.38;;;7.32;100.00
44934;BME280;30667;43.614;1.442;2023-02-01T05:37:18;101448.28;;;7.32;100.00
44934;BME280;30667;43.614;1.442;2023-02-01T05:39:43;101456.13;;;7.33;100.00
44934;BME280;30667;43.614;1.442;2023-02-01T05:42:09;101455.09;;;7.34;100.00
44934;BME280;30667;43.614;1.442;2023-02-01T05:44:34;101452.63;;;7.33;100.00
44934;BME280;30667;43.614;1.442;2023-02-01T05:47:00;101442.06;;;7.31;100.00
44934;BME280;30667;43.614;1.442;2023-02-01T05:49:25;101441.22;;;7.31;100.00
44934;BME280;30667;43.614;1.442;2023-02-01T05:51:50;101437.13;;;7.28;100.00
44934;BME280;30667;43.614;1.442;2023-02-01T05:54:16;101436.53;;;7.26;100.00
44934;BME280;30667;43.614;1.442;2023-02-01T05:56:41;101440.47;;;7.23;100.00
44934;BME280;30667;43.614;1.442;2023-02-01T05:59:07;101442.13;;;7.24;100.00
44934;BME280;30667;43.614;1.442;2023-02-01T06:01:32;101439.22;;;7.26;100.00
44934;BME280;30667;43.614;1.442;2023-02-01T06:03:58;101450.81;;;7.26;100.00
44934;BME280;30667;43.614;1.442;2023-02-01T06:06:23;101446.84;;;7.29;100.00
44934;BME280;30667;43.614;1.442;2023-02-01T06:08:49;101446.22;;;7.27;100.00
44934;BME280;30667;43.614;1.442;2023-02-01T06:11:14;101456.78;;;7.28;100.00
44934;BME280;30667;43.614;1.442;2023-02-01T06:13:39;101465.09;;;7.27;100.00
44934;BME280;30667;43.614;1.442;2023-02-01T06:16:05;101464.88;;;7.28;100.00
44934;BME280;30667;43.614;1.442;2023-02-01T06:18:33;101472.72;;;7.30;100.00
44934;BME280;30667;43.614;1.442;2023-02-01T06:20:59;101465.09;;;7.27;100.00
44934;BME280;30667;43.614;1.442;2023-02-01T06:23:25;101471.06;;;7.29;100.00
44934;BME280;30667;43.614;1.442;2023-02-01T06:26:02;101476.22;;;7.31;100.00
44934;BME280;30667;43.614;1.442;2023-02-01T06:28:28;101478.09;;;7.30;100.00
44934;BME280;30667;43.614;1.442;2023-02-01T06:30:54;101475.84;;;7.27;100.00
44934;BME280;30667;43.614;1.442;2023-02-01T06:33:19;101471.53;;;7.26;100.00
44934;BME280;30667;43.614;1.442;2023-02-01T06:35:45;101474.22;;;7.26;100.00
44934;BME280;30667;43.614;1.442;2023-02-01T06:38:11;101478.97;;;7.24;100.00
44934;BME280;30667;43.614;1.442;2023-02-01T06:40:37;101477.13;;;7.24;100.00
44934;BME280;30667;43.614;1.442;2023-02-01T06:43:03;101480.03;;;7.23;100.00
44934;BME280;30667;43.614;1.442;2023-02-01T06:45:29;101480.84;;;7.23;100.00
44934;BME280;30667;43.614;1.442;2023-02-01T06:47:54;101487.91;;;7.24;100.00
44934;BME280;30667;43.614;1.442;2023-02-01T06:50:19;101491.19;;;7.26;100.00
44934;BME280;30667;43.614;1.442;2023-02-01T06:52:45;101486.84;;;7.25;100.00
44934;BME280;30667;43.614;1.442;2023-02-01T06:55:11;101493.88;;;7.26;100.00
44934;BME280;30667;43.614;1.442;2023-02-01T06:57:37;101488.28;;;7.28;100.00
44934;BME280;30667;43.614;1.442;2023-02-01T07:00:03;101501.97;;;7.26;100.00
44934;BME280;30667;43.614;1.442;2023-02-01T07:02:29;101498.44;;;7.26;100.00
44934;BME280;30667;43.614;1.442;2023-02-01T07:04:54;101501.16;;;7.26;100.00
44934;BME280;30667;43.614;1.442;2023-02-01T07:07:20;101506.75;;;7.24;100.00
44934;BME280;30667;43.614;1.442;2023-02-01T07:09:50;101505.91;;;7.24;100.00
44934;BME280;30667;43.614;1.442;2023-02-01T07:12:15;101502.41;;;7.23;100.00
44934;BME280;30667;43.614;1.442;2023-02-01T07:14:41;101507.19;;;7.21;100.00
44934;BME280;30667;43.614;1.442;2023-02-01T07:17:06;101514.81;;;7.24;100.00
44934;BME280;30667;43.614;1.442;2023-02-01T07:19:32;101515.78;;;7.30;100.00
44934;BME280;30667;43.614;1.442;2023-02-01T07:21:57;101517.41;;;7.38;100.00
44934;BME280;30667;43.614;1.442;2023-02-01T07:24:23;101522.44;;;7.53;100.00
44934;BME280;30667;43.614;1.442;2023-02-01T07:26:48;101524.00;;;7.42;100.00
44934;BME280;30667;43.614;1.442;2023-02-01T07:29:16;101528.59;;;7.35;100.00
44934;BME280;30667;43.614;1.442;2023-02-01T07:31:42;101538.00;;;7.25;100.00
44934;BME280;30667;43.614;1.442;2023-02-01T07:34:07;101538.41;;;7.22;100.00
44934;BME280;30667;43.614;1.442;2023-02-01T07:36:32;101530.34;;;7.22;100.00
44934;BME280;30667;43.614;1.442;2023-02-01T07:38:59;101529.75;;;7.20;100.00
44934;BME280;30667;43.614;1.442;2023-02-01T07:41:25;101521.06;;;7.18;100.00
44934;BME280;30667;43.614;1.442;2023-02-01T07:43:53;101514.25;;;7.16;100.00
44934;BME280;30667;43.614;1.442;2023-02-01T07:46:19;101519.25;;;7.12;100.00
44934;BME280;30667;43.614;1.442;2023-02-01T07:48:44;101512.00;;;7.13;100.00
44934;BME280;30667;43.614;1.442;2023-02-01T07:51:12;101515.97;;;7.10;100.00
44934;BME280;30667;43.614;1.442;2023-02-01T07:53:38;101519.47;;;7.11;100.00
44934;BME280;30667;43.614;1.442;2023-02-01T07:56:13;101526.25;;;7.13;100.00
44934;BME280;30667;43.614;1.442;2023-02-01T07:58:39;101528.94;;;7.13;100.00
44934;BME280;30667;43.614;1.442;2023-02-01T08:01:05;101516.94;;;7.16;100.00
44934;BME280;30667;43.614;1.442;2023-02-01T08:03:47;101522.91;;;7.18;100.00
44934;BME280;30667;43.614;1.442;2023-02-01T08:06:13;101519.41;;;7.17;100.00
44934;BME280;30667;43.614;1.442;2023-02-01T08:08:38;101507.84;;;7.17;100.00
44934;BME280;30667;43.614;1.442;2023-02-01T08:11:05;101510.31;;;7.18;100.00
44934;BME280;30667;43.614;1.442;2023-02-01T08:13:32;101511.13;;;7.19;100.00
44934;BME280;30667;43.614;1.442;2023-02-01T08:16:02;101506.56;;;7.19;100.00
44934;BME280;30667;43.614;1.442;2023-02-01T08:18:28;101512.78;;;7.20;100.00
44934;BME280;30667;43.614;1.442;2023-02-01T08:20:54;101503.84;;;7.19;100.00
44934;BME280;30667;43.614;1.442;2023-02-01T08:23:21;101511.94;;;7.19;100.00
44934;BME280;30667;43.614;1.442;2023-02-01T08:25:47;101521.25;;;7.23;100.00
44934;BME280;30667;43.614;1.442;2023-02-01T08:28:13;101516.44;;;7.25;100.00
44934;BME280;30667;43.614;1.442;2023-02-01T08:30:39;101509.88;;;7.21;100.00
44934;BME280;30667;43.614;1.442;2023-02-01T08:33:05;101512.13;;;7.24;100.00
44934;BME280;30667;43.614;1.442;2023-02-01T08:35:38;101515.84;;;7.23;100.00
44934;BME280;30667;43.614;1.442;2023-02-01T08:38:04;101522.69;;;7.26;100.00
44934;BME280;30667;43.614;1.442;2023-02-01T08:40:30;101528.28;;;7.24;100.00
44934;BME280;30667;43.614;1.442;2023-02-01T08:42:55;101535.56;;;7.17;100.00
44934;BME280;30667;43.614;1.442;2023-02-01T08:45:25;101536.38;;;7.18;100.00
44934;BME280;30667;43.614;1.442;2023-02-01T08:47:52;101541.31;;;7.21;100.00
44934;BME280;30667;43.614;1.442;2023-02-01T08:50:18;101540.91;;;7.24;100.00
44934;BME280;30667;43.614;1.442;2023-02-01T08:52:44;101545.91;;;7.20;100.00
44934;BME280;30667;43.614;1.442;2023-02-01T08:55:10;101545.03;;;7.26;100.00
44934;BME280;30667;43.614;1.442;2023-02-01T08:57:36;101548.91;;;7.31;100.00
44934;BME280;30667;43.614;1.442;2023-02-01T09:00:03;101560.31;;;7.33;100.00
44934;BME280;30667;43.614;1.442;2023-02-01T09:02:29;101567.75;;;7.37;100.00
44934;BME280;30667;43.614;1.442;2023-02-01T09:04:56;101569.22;;;7.33;100.00
44934;BME280;30667;43.614;1.442;2023-02-01T09:07:21;101570.66;;;7.36;100.00
44934;BME280;30667;43.614;1.442;2023-02-01T09:09:47;101570.00;;;7.40;100.00
44934;BME280;30667;43.614;1.442;2023-02-01T09:12:12;101564.41;;;7.42;100.00
44934;BME280;30667;43.614;1.442;2023-02-01T09:14:38;101575.59;;;7.39;100.00
44934;BME280;30667;43.614;1.442;2023-02-01T09:17:03;101568.56;;;7.38;100.00
44934;BME280;30667;43.614;1.442;2023-02-01T09:19:31;101576.97;;;7.23;100.00
44934;BME280;30667;43.614;1.442;2023-02-01T09:21:56;101577.50;;;7.32;100.00
44934;BME280;30667;43.614;1.442;2023-02-01T09:24:22;101584.72;;;7.38;100.00
44934;BME280;30667;43.614;1.442;2023-02-01T09:26:47;101581.59;;;7.41;100.00
44934;BME280;30667;43.614;1.442;2023-02-01T09:29:13;101580.38;;;7.37;100.00
44934;BME280;30667;43.614;1.442;2023-02-01T09:31:39;101584.72;;;7.38;100.00
44934;BME280;30667;43.614;1.442;2023-02-01T09:34:06;101591.94;;;7.44;100.00
44934;BME280;30667;43.614;1.442;2023-02-01T09:36:31;101587.72;;;7.55;100.00
44934;BME280;30667;43.614;1.442;2023-02-01T09:38:57;101593.22;;;7.67;100.00
44934;BME280;30667;43.614;1.442;2023-02-01T09:41:35;101588.91;;;7.84;100.00
44934;BME280;30667;43.614;1.442;2023-02-01T09:44:09;101598.09;;;7.76;100.00
44934;BME280;30667;43.614;1.442;2023-02-01T09:46:39;101598.16;;;7.70;100.00
44934;BME280;30667;43.614;1.442;2023-02-01T09:49:12;101606.09;;;7.64;100.00
44934;BME280;30667;43.614;1.442;2023-02-01T09:51:43;101607.34;;;7.62;100.00
44934;BME280;30667;43.614;1.442;2023-02-01T09:54:15;101615.56;;;7.67;100.00
44934;BME280;30667;43.614;1.442;2023-02-01T09:56:50;101606.56;;;7.55;100.00
44934;BME280;30667;43.614;1.442;2023-02-01T09:59:29;101613.03;;;7.47;100.00
44934;BME280;30667;43.614;1.442;2023-02-01T10:01:57;101617.03;;;7.38;100.00
44934;BME280;30667;43.614;1.442;2023-02-01T10:04:25;101624.09;;;7.32;100.00
44934;BME280;30667;43.614;1.442;2023-02-01T10:09:56;101627.00;;;7.31;100.00
44934;BME280;30667;43.614;1.442;2023-02-01T10:12:28;101632.81;;;7.34;100.00
44934;BME280;30667;43.614;1.442;2023-02-01T10:22:48;101632.28;;;7.51;100.00
44934;BME280;30667;43.614;1.442;2023-02-01T10:25:36;101639.13;;;7.46;100.00
44934;BME280;30667;43.614;1.442;2023-02-01T10:28:03;101643.31;;;7.42;100.00
44934;BME280;30667;43.614;1.442;2023-02-01T10:30:45;101639.38;;;7.38;100.00
44934;BME280;30667;43.614;1.442;2023-02-01T10:33:22;101645.63;;;7.39;100.00
44934;BME280;30667;43.614;1.442;2023-02-01T10:35:55;101637.09;;;7.42;100.00
44934;BME280;30667;43.614;1.442;2023-02-01T10:38:29;101639.34;;;7.45;100.00
44934;BME280;30667;43.614;1.442;2023-02-01T10:40:59;101642.84;;;7.52;100.00
44934;BME280;30667;43.614;1.442;2023-02-01T10:43:26;101642.72;;;7.66;100.00
44934;BME280;30667;43.614;1.442;2023-02-01T10:45:51;101646.59;;;7.76;100.00
44934;BME280;30667;43.614;1.442;2023-02-01T10:48:17;101631.47;;;7.75;100.00
44934;BME280;30667;43.614;1.442;2023-02-01T10:53:15;101639.97;;;7.79;100.00
44934;BME280;30667;43.614;1.442;2023-02-01T11:00:49;101640.22;;;7.96;100.00
44934;BME280;30667;43.614;1.442;2023-02-01T11:03:34;101638.66;;;7.88;100.00
44934;BME280;30667;43.614;1.442;2023-02-01T11:06:13;101643.81;;;7.90;100.00
44934;BME280;30667;43.614;1.442;2023-02-01T11:09:01;101638.97;;;7.98;100.00
44934;BME280;30667;43.614;1.442;2023-02-01T11:16:53;101633.84;;;8.15;100.00
44934;BME280;30667;43.614;1.442;2023-02-01T11:19:18;101626.38;;;8.17;100.00
44934;BME280;30667;43.614;1.442;2023-02-01T11:21:51;101630.75;;;8.12;100.00
44934;BME280;30667;43.614;1.442;2023-02-01T11:24:29;101633.88;;;8.09;100.00
44934;BME280;30667;43.614;1.442;2023-02-01T11:26:57;101624.19;;;8.26;100.00
44934;BME280;30667;43.614;1.442;2023-02-01T11:29:25;101619.63;;;8.27;100.00
44934;BME280;30667;43.614;1.442;2023-02-01T11:31:59;101631.41;;;8.32;100.00
44934;BME280;30667;43.614;1.442;2023-02-01T11:34:41;101623.59;;;8.24;100.00
44934;BME280;30667;43.614;1.442;2023-02-01T11:37:38;101624.81;;;8.28;100.00
44934;BME280;30667;43.614;1.442;2023-02-01T11:43:07;101611.47;;;8.33;100.00
44934;BME280;30667;43.614;1.442;2023-02-01T11:45:33;101608.13;;;8.38;100.00
44934;BME280;30667;43.614;1.442;2023-02-01T11:48:00;101608.66;;;8.47;100.00
44934;BME280;30667;43.614;1.442;2023-02-01T11:50:46;101604.34;;;8.39;100.00
44934;BME280;30667;43.614;1.442;2023-02-01T11:58:57;101591.50;;;8.41;100.00
44934;BME280;30667;43.614;1.442;2023-02-01T12:12:19;101581.78;;;8.59;100.00
44934;BME280;30667;43.614;1.442;2023-02-01T12:36:58;101552.81;;;8.66;100.00
44934;BME280;30667;43.614;1.442;2023-02-01T12:39:39;101547.56;;;8.71;100.00
44934;BME280;30667;43.614;1.442;2023-02-01T12:42:41;101547.16;;;8.56;100.00
44934;BME280;30667;43.614;1.442;2023-02-01T12:47:56;101541.94;;;8.72;100.00
44934;BME280;30667;43.614;1.442;2023-02-01T12:50:29;101543.59;;;8.73;100.00
44934;BME280;30667;43.614;1.442;2023-02-01T12:53:34;101541.94;;;8.72;100.00
44934;BME280;30667;43.614;1.442;2023-02-01T12:56:07;101546.81;;;8.82;100.00
44934;BME280;30667;43.614;1.442;2023-02-01T12:58:50;101543.97;;;8.77;100.00
44934;BME280;30667;43.614;1.442;2023-02-01T13:01:28;101541.78;;;8.86;100.00
44934;BME280;30667;43.614;1.442;2023-02-01T13:06:38;101535.25;;;8.94;100.00
44934;BME280;30667;43.614;1.442;2023-02-01T13:09:09;101535.97;;;9.01;100.00
44934;BME280;30667;43.614;1.442;2023-02-01T13:11:42;101537.56;;;8.90;100.00
44934;BME280;30667;43.614;1.442;2023-02-01T13:17:03;101533.50;;;8.99;100.00
44934;BME280;30667;43.614;1.442;2023-02-01T13:22:09;101533.50;;;9.65;100.00
44934;BME280;30667;43.614;1.442;2023-02-01T13:24:42;101534.94;;;9.14;100.00
44934;BME280;30667;43.614;1.442;2023-02-01T13:27:14;101528.19;;;8.93;100.00
44934;BME280;30667;43.614;1.442;2023-02-01T13:33:08;101523.72;;;8.68;100.00
44934;BME280;30667;43.614;1.442;2023-02-01T13:41:20;101527.13;;;8.63;100.00
44934;BME280;30667;43.614;1.442;2023-02-01T13:43:51;101520.75;;;8.58;100.00
44934;BME280;30667;43.614;1.442;2023-02-01T13:46:18;101517.84;;;8.59;100.00
44934;BME280;30667;43.614;1.442;2023-02-01T13:48:54;101525.94;;;8.59;100.00
44934;BME280;30667;43.614;1.442;2023-02-01T13:51:37;101519.09;;;8.57;100.00
44934;BME280;30667;43.614;1.442;2023-02-01T13:54:06;101520.53;;;8.59;100.00
44934;BME280;30667;43.614;1.442;2023-02-01T13:56:40;101517.97;;;8.64;100.00
44934;BME280;30667;43.614;1.442;2023-02-01T14:10:56;101517.47;;;8.56;100.00
44934;BME280;30667;43.614;1.442;2023-02-01T14:13:29;101511.25;;;8.55;100.00
44934;BME280;30667;43.614;1.442;2023-02-01T14:26:42;101505.13;;;8.48;100.00
44934;BME280;30667;43.614;1.442;2023-02-01T14:44:50;101494.78;;;8.45;100.00
44934;BME280;30667;43.614;1.442;2023-02-01T14:52:28;101485.56;;;8.52;100.00
44934;BME280;30667;43.614;1.442;2023-02-01T14:54:59;101484.50;;;8.53;100.00
44934;BME280;30667;43.614;1.442;2023-02-01T14:57:27;101488.25;;;8.52;100.00
44934;BME280;30667;43.614;1.442;2023-02-01T15:00:18;101490.72;;;8.54;100.00
44934;BME280;30667;43.614;1.442;2023-02-01T15:02:45;101486.50;;;8.58;100.00
44934;BME280;30667;43.614;1.442;2023-02-01T15:05:32;101488.25;;;8.52;100.00
44934;BME280;30667;43.614;1.442;2023-02-01T15:08:16;101491.78;;;8.53;100.00
44934;BME280;30667;43.614;1.442;2023-02-01T15:10:46;101497.63;;;8.50;100.00
44934;BME280;30667;43.614;1.442;2023-02-01T15:13:27;101485.44;;;8.47;100.00
44934;BME280;30667;43.614;1.442;2023-02-01T15:16:00;101488.47;;;8.51;100.00
44934;BME280;30667;43.614;1.442;2023-02-01T15:18:25;101490.38;;;8.50;100.00
44934;BME280;30667;43.614;1.442;2023-02-01T15:20:59;101490.38;;;8.50;100.00
44934;BME280;30667;43.614;1.442;2023-02-01T15:23:25;101488.56;;;8.44;100.00
44934;BME280;30667;43.614;1.442;2023-02-01T15:25:51;101491.63;;;8.48;100.00
44934;BME280;30667;43.614;1.442;2023-02-01T15:28:17;101485.78;;;8.51;100.00
44934;BME280;30667;43.614;1.442;2023-02-01T15:30:59;101484.13;;;8.50;100.00